createdAt,value
2018-06-10T00:00:19.736Z,31.17
2018-06-10T00:02:47.934Z,29.00
2018-06-10T00:05:16.097Z,27.60
2018-06-10T00:07:44.231Z,27.37
2018-06-10T00:10:12.506Z,25.20
2018-06-10T00:12:40.728Z,22.80
2018-06-10T00:15:09.207Z,24.13
2018-06-10T00:17:37.443Z,23.93
2018-06-10T00:20:05.910Z,23.13
2018-06-10T00:22:34.115Z,23.07
2018-06-10T00:25:02.351Z,24.60
2018-06-10T00:27:30.457Z,25.70
2018-06-10T00:29:58.673Z,27.07
2018-06-10T00:32:26.806Z,26.20
2018-06-10T00:34:54.859Z,27.10
2018-06-10T00:37:23.046Z,29.10
2018-06-10T00:39:51.233Z,25.17
2018-06-10T00:42:19.937Z,25.77
2018-06-10T00:44:48.503Z,28.70
2018-06-10T00:47:17.291Z,27.13
2018-06-10T00:49:46.332Z,26.63
2018-06-10T00:52:14.569Z,28.60
2018-06-10T00:54:43.391Z,28.50
2018-06-10T00:57:12.514Z,27.80
2018-06-10T00:59:45.483Z,29.60
2018-06-10T01:02:14.103Z,29.73
2018-06-10T01:04:42.346Z,27.77
2018-06-10T01:07:10.897Z,29.50
2018-06-10T01:09:39.542Z,30.57
2018-06-10T01:12:08.606Z,31.37
2018-06-10T01:14:36.826Z,30.97
2018-06-10T01:17:05.057Z,31.47
2018-06-10T01:19:33.303Z,32.50
2018-06-10T01:22:01.503Z,29.80
2018-06-10T01:24:29.626Z,30.00
2018-06-10T01:26:57.729Z,33.13
2018-06-10T01:29:26.210Z,32.27
2018-06-10T01:31:54.295Z,31.77
2018-06-10T01:34:22.929Z,29.60
2018-06-10T01:36:51.382Z,32.13
2018-06-10T01:39:19.626Z,28.60
2018-06-10T01:41:47.853Z,30.73
2018-06-10T01:44:16.353Z,28.90
2018-06-10T01:46:44.711Z,28.03
2018-06-10T01:49:13.066Z,28.77
2018-06-10T01:51:41.370Z,27.63
2018-06-10T01:54:09.620Z,28.30
2018-06-10T01:56:37.799Z,30.57
2018-06-10T01:59:05.973Z,29.27
2018-06-10T02:01:34.177Z,29.77
2018-06-10T02:04:03.552Z,28.57
2018-06-10T02:06:31.796Z,30.80
2018-06-10T02:09:00.099Z,29.27
2018-06-10T02:11:28.264Z,27.13
2018-06-10T02:13:56.517Z,26.10
2018-06-10T02:16:24.646Z,26.93
2018-06-10T02:18:52.681Z,24.77
2018-06-10T02:21:21.497Z,24.37
2018-06-10T02:23:49.675Z,25.90
2018-06-10T02:26:17.840Z,24.83
2018-06-10T02:28:45.984Z,26.00
2018-06-10T02:31:14.138Z,23.87
2018-06-10T02:33:42.459Z,23.63
2018-06-10T02:36:10.695Z,24.07
2018-06-10T02:38:38.849Z,22.40
2018-06-10T02:41:07.090Z,21.77
2018-06-10T02:43:35.201Z,22.87
2018-06-10T02:46:03.478Z,24.30
2018-06-10T02:48:31.641Z,23.67
2018-06-10T02:50:59.711Z,23.97
2018-06-10T02:53:27.901Z,24.80
2018-06-10T02:55:55.952Z,23.07
2018-06-10T02:58:24.233Z,20.77
2018-06-10T03:00:52.367Z,22.30
2018-06-10T03:03:20.497Z,21.07
2018-06-10T03:05:48.674Z,23.40
2018-06-10T03:08:16.786Z,20.70
2018-06-10T03:10:44.898Z,21.70
2018-06-10T03:13:13.165Z,21.50
2018-06-10T03:15:41.302Z,21.10
2018-06-10T03:18:09.447Z,21.57
2018-06-10T03:20:37.640Z,23.67
2018-06-10T03:23:05.875Z,22.10
2018-06-10T03:25:34.081Z,20.63
2018-06-10T03:28:02.234Z,21.37
2018-06-10T03:30:30.446Z,21.00
2018-06-10T03:32:58.566Z,22.70
2018-06-10T03:35:27.260Z,23.77
2018-06-10T03:37:55.448Z,20.60
2018-06-10T03:40:23.549Z,20.37
2018-06-10T03:42:51.657Z,22.97
2018-06-10T03:45:19.826Z,20.23
2018-06-10T03:47:47.921Z,22.07
2018-06-10T03:50:16.026Z,21.03
2018-06-10T03:52:44.140Z,20.13
2018-06-10T03:55:12.313Z,21.40
2018-06-10T03:57:40.498Z,21.57
2018-06-10T04:00:08.723Z,22.40
2018-06-10T04:02:36.844Z,22.13
2018-06-10T04:05:05.017Z,23.87
2018-06-10T04:07:33.154Z,21.80
2018-06-10T04:10:01.294Z,21.27
2018-06-10T04:12:29.852Z,21.13
2018-06-10T04:14:58.060Z,20.40
2018-06-10T04:17:26.209Z,18.60
2018-06-10T04:19:54.324Z,20.87
2018-06-10T04:22:22.529Z,22.90
2018-06-10T04:24:50.649Z,20.10
2018-06-10T04:27:18.859Z,20.83
2018-06-10T04:29:47.147Z,20.20
2018-06-10T04:32:15.315Z,21.07
2018-06-10T04:34:43.526Z,19.37
2018-06-10T04:37:11.684Z,20.87
2018-06-10T04:39:39.853Z,20.50
2018-06-10T04:42:07.985Z,19.60
2018-06-10T04:44:36.135Z,20.37
2018-06-10T04:47:04.309Z,20.20
2018-06-10T04:49:32.857Z,19.57
2018-06-10T04:52:01.112Z,19.70
2018-06-10T04:54:29.420Z,20.97
2018-06-10T04:56:57.538Z,19.77
2018-06-10T04:59:25.837Z,22.00
2018-06-10T05:01:54.035Z,19.87
2018-06-10T05:04:22.310Z,19.20
2018-06-10T05:06:50.468Z,20.40
2018-06-10T05:09:18.590Z,19.00
2018-06-10T05:11:46.741Z,20.53
2018-06-10T05:14:14.888Z,20.83
2018-06-10T05:16:43.225Z,21.20
2018-06-10T05:19:11.316Z,21.47
2018-06-10T05:21:39.651Z,19.10
2018-06-10T05:24:07.825Z,18.67
2018-06-10T05:26:36.365Z,19.07
2018-06-10T05:29:04.867Z,18.00
2018-06-10T05:31:32.993Z,20.00
2018-06-10T05:34:01.170Z,20.03
2018-06-10T05:36:29.322Z,18.93
2018-06-10T05:38:57.433Z,20.37
2018-06-10T05:41:25.647Z,19.10
2018-06-10T05:43:53.817Z,19.07
2018-06-10T05:46:21.988Z,15.90
2018-06-10T05:48:50.267Z,17.43
2018-06-10T05:51:18.502Z,17.47
2018-06-10T05:53:46.726Z,19.23
2018-06-10T05:56:15.210Z,18.83
2018-06-10T05:58:43.366Z,16.53
2018-06-10T06:01:11.544Z,15.17
2018-06-10T06:03:40.226Z,14.33
2018-06-10T06:08:41.253Z,13.47
2018-06-10T06:11:09.445Z,15.33
2018-06-10T06:13:38.093Z,14.60
2018-06-10T06:16:06.289Z,13.07
2018-06-10T06:18:34.502Z,14.00
2018-06-10T06:21:02.826Z,14.87
2018-06-10T06:23:30.930Z,15.97
2018-06-10T06:25:59.069Z,14.30
2018-06-10T06:28:27.357Z,14.97
2018-06-10T06:30:55.473Z,21.67
2018-06-10T06:33:23.623Z,17.10
2018-06-10T06:35:51.802Z,13.87
2018-06-10T06:38:19.941Z,16.97
2018-06-10T06:40:48.076Z,17.37
2018-06-10T06:43:16.209Z,16.63
2018-06-10T06:45:44.354Z,15.10
2018-06-10T06:48:12.603Z,17.77
2018-06-10T06:50:41.290Z,14.20
2018-06-10T06:53:09.449Z,16.10
2018-06-10T06:55:37.939Z,13.93
2018-06-10T07:00:39.156Z,13.70
2018-06-10T07:03:07.309Z,16.73
2018-06-10T07:05:35.517Z,15.80
2018-06-10T07:08:03.670Z,14.70
2018-06-10T07:10:31.838Z,14.07
2018-06-10T07:12:59.978Z,14.57
2018-06-10T07:15:28.448Z,16.40
2018-06-10T07:17:56.617Z,18.00
2018-06-10T07:20:24.788Z,16.37
2018-06-10T07:22:52.939Z,15.33
2018-06-10T07:25:21.136Z,14.93
2018-06-10T07:27:49.506Z,16.00
2018-06-10T07:30:17.674Z,16.10
2018-06-10T07:32:46.223Z,16.83
2018-06-10T07:35:14.413Z,17.70
2018-06-10T07:37:42.542Z,19.10
2018-06-10T07:40:10.677Z,18.93
2018-06-10T07:42:39.029Z,19.90
2018-06-10T07:45:07.086Z,22.67
2018-06-10T07:47:35.187Z,22.43
2018-06-10T07:50:03.401Z,20.50
2018-06-10T07:52:31.607Z,19.60
2018-06-10T07:54:59.739Z,18.93
2018-06-10T07:57:27.863Z,18.23
2018-06-10T07:59:56.027Z,18.80
2018-06-10T08:02:24.514Z,18.73
2018-06-10T08:04:52.710Z,21.20
2018-06-10T08:07:20.805Z,18.93
2018-06-10T08:09:49.309Z,17.83
2018-06-10T08:12:17.553Z,18.23
2018-06-10T08:14:45.810Z,17.87
2018-06-10T08:17:15.812Z,18.77
2018-06-10T08:19:44.218Z,19.00
2018-06-10T08:22:13.545Z,18.87
2018-06-10T08:24:42.036Z,18.57
2018-06-10T08:27:11.337Z,22.93
2018-06-10T08:29:39.869Z,20.67
2018-06-10T08:32:08.250Z,22.37
2018-06-10T08:34:36.888Z,20.87
2018-06-10T08:37:05.414Z,18.80
2018-06-10T08:39:33.845Z,20.40
2018-06-10T08:42:02.205Z,20.17
2018-06-10T08:44:30.761Z,22.20
2018-06-10T08:46:59.478Z,20.87
2018-06-10T08:49:27.919Z,21.47
2018-06-10T08:51:56.702Z,20.47
2018-06-10T08:54:25.164Z,23.00
2018-06-10T08:56:54.512Z,23.43
2018-06-10T08:59:23.174Z,24.27
2018-06-10T09:01:52.377Z,22.70
2018-06-10T09:04:20.631Z,24.20
2018-06-10T09:06:49.466Z,22.00
2018-06-10T09:09:22.108Z,24.77
2018-06-10T09:11:50.812Z,24.40
2018-06-10T09:14:19.738Z,25.60
2018-06-10T09:16:48.226Z,26.30
2018-06-10T09:19:16.949Z,26.20
2018-06-10T09:21:45.230Z,26.30
2018-06-10T09:24:13.337Z,27.37
2018-06-10T09:26:41.638Z,26.63
2018-06-10T09:29:09.914Z,28.17
2018-06-10T09:31:38.482Z,27.90
2018-06-10T09:34:07.057Z,26.70
2018-06-10T09:36:36.022Z,26.50
2018-06-10T09:39:08.051Z,27.37
2018-06-10T09:41:36.630Z,29.43
2018-06-10T09:44:05.114Z,27.97
2018-06-10T09:46:33.873Z,28.17
2018-06-10T09:49:02.593Z,27.50
2018-06-10T09:51:31.693Z,27.33
2018-06-10T09:54:00.043Z,29.23
2018-06-10T09:56:28.373Z,26.17
2018-06-10T09:58:57.227Z,29.07
2018-06-10T10:01:30.282Z,28.80
2018-06-10T10:04:01.396Z,26.43
2018-06-10T10:06:29.863Z,28.43
2018-06-10T10:08:58.928Z,30.00
2018-06-10T10:11:28.003Z,26.70
2018-06-10T10:13:56.404Z,27.03
2018-06-10T10:16:24.742Z,28.90
2018-06-10T10:18:53.060Z,27.97
2018-06-10T10:21:21.435Z,28.50
2018-06-10T10:23:49.691Z,29.20
2018-06-10T10:26:18.292Z,28.30
2018-06-10T10:28:46.748Z,29.13
2018-06-10T10:31:15.058Z,30.00
2018-06-10T10:33:43.361Z,29.77
2018-06-10T10:36:11.778Z,27.83
2018-06-10T10:38:40.086Z,25.77
2018-06-10T10:41:08.263Z,29.83
2018-06-10T10:43:36.595Z,29.90
2018-06-10T10:46:04.873Z,28.10
2018-06-10T10:48:33.133Z,29.33
2018-06-10T10:51:01.662Z,27.50
2018-06-10T10:53:30.136Z,23.00
2018-06-10T10:55:58.648Z,24.13
2018-06-10T10:58:26.863Z,22.93
2018-06-10T11:00:55.167Z,25.30
2018-06-10T11:03:23.403Z,29.53
2018-06-10T11:05:51.803Z,29.40
2018-06-10T11:08:20.105Z,28.50
2018-06-10T11:10:48.282Z,26.60
2018-06-10T11:13:16.560Z,26.43
2018-06-10T11:15:44.738Z,24.47
2018-06-10T11:18:12.954Z,24.03
2018-06-10T11:20:41.194Z,21.30
2018-06-10T11:23:09.370Z,24.00
2018-06-10T11:25:37.575Z,23.47
2018-06-10T11:28:06.419Z,21.50
2018-06-10T11:30:34.612Z,22.10
2018-06-10T11:33:02.912Z,23.80
2018-06-10T11:35:31.118Z,20.10
2018-06-10T11:37:59.284Z,21.90
2018-06-10T11:40:27.565Z,18.53
2018-06-10T11:42:56.632Z,15.93
2018-06-10T11:45:24.899Z,16.83
2018-06-10T11:47:53.331Z,15.00
2018-06-10T11:50:21.461Z,13.67
2018-06-10T11:52:49.974Z,14.10
2018-06-10T11:55:18.248Z,13.87
2018-06-10T11:57:46.399Z,13.37
2018-06-10T12:00:14.564Z,12.63
2018-06-10T12:02:42.773Z,11.63
2018-06-10T12:05:10.937Z,12.60
2018-06-10T12:07:39.107Z,12.37
2018-06-10T12:10:07.714Z,13.80
2018-06-10T12:12:36.074Z,13.27
2018-06-10T12:15:04.375Z,12.40
2018-06-10T12:17:32.546Z,12.67
2018-06-10T12:20:00.812Z,14.47
2018-06-10T12:22:29.097Z,15.50
2018-06-10T12:24:57.403Z,13.83
2018-06-10T12:27:25.987Z,16.50
2018-06-10T12:29:54.199Z,15.67
2018-06-10T12:32:22.451Z,15.10
2018-06-10T12:34:50.747Z,14.90
2018-06-10T12:37:19.059Z,15.57
2018-06-10T12:39:47.265Z,15.53
2018-06-10T12:42:15.661Z,15.00
2018-06-10T12:44:43.971Z,15.93
2018-06-10T12:47:12.745Z,15.37
2018-06-10T12:49:40.937Z,15.67
2018-06-10T12:52:09.176Z,15.20
2018-06-10T12:54:37.360Z,17.50
2018-06-10T12:57:05.637Z,17.27
2018-06-10T12:59:33.824Z,15.90
2018-06-10T13:02:02.754Z,15.77
2018-06-10T13:04:31.046Z,16.67
2018-06-10T13:06:59.201Z,14.80
2018-06-10T13:09:27.503Z,15.57
2018-06-10T13:11:55.576Z,14.47
2018-06-10T13:14:23.770Z,15.40
2018-06-10T13:16:52.013Z,14.97
2018-06-10T13:19:20.285Z,15.80
2018-06-10T13:21:48.618Z,15.70
2018-06-10T13:24:16.862Z,16.60
2018-06-10T13:26:45.063Z,17.13
2018-06-10T13:29:13.278Z,17.10
2018-06-10T13:31:41.458Z,16.30
2018-06-10T13:34:09.657Z,17.10
2018-06-10T13:36:37.848Z,17.63
2018-06-10T13:39:08.214Z,16.80
2018-06-10T13:41:36.422Z,16.40
2018-06-10T13:44:04.633Z,16.27
2018-06-10T13:46:32.961Z,16.17
2018-06-10T13:49:01.238Z,15.90
2018-06-10T13:51:29.366Z,16.63
2018-06-10T13:53:57.651Z,15.37
2018-06-10T13:56:25.778Z,14.33
2018-06-10T13:58:53.951Z,15.80
2018-06-10T14:01:22.150Z,16.00
2018-06-10T14:03:50.411Z,17.13
2018-06-10T14:06:19.177Z,16.63
2018-06-10T14:08:47.354Z,17.93
2018-06-10T14:11:15.621Z,17.43
2018-06-10T14:13:43.828Z,20.00
2018-06-10T14:16:12.439Z,20.10
2018-06-10T14:18:40.748Z,21.17
2018-06-10T14:21:08.974Z,22.70
2018-06-10T14:23:37.326Z,24.80
2018-06-10T14:26:05.663Z,24.17
2018-06-10T14:28:33.974Z,27.07
2018-06-10T14:31:02.553Z,26.77
2018-06-10T14:33:30.810Z,28.90
2018-06-10T14:35:59.144Z,29.80
2018-06-10T14:38:27.407Z,27.20
2018-06-10T14:40:55.765Z,27.93
2018-06-10T14:43:24.341Z,25.67
2018-06-10T14:46:00.563Z,22.93
2018-06-10T14:48:29.050Z,21.87
2018-06-10T14:50:57.447Z,18.20
2018-06-10T14:53:25.801Z,17.00
2018-06-10T14:55:53.939Z,15.60
2018-06-10T14:58:22.499Z,14.37
2018-06-10T15:00:51.007Z,14.70
2018-06-10T15:03:19.314Z,15.77
2018-06-10T15:05:47.590Z,11.33
2018-06-10T15:08:15.959Z,10.40
2018-06-10T15:10:46.528Z,8.57
2018-06-10T15:13:14.978Z,9.30
2018-06-10T15:15:43.448Z,10.20
2018-06-10T15:18:12.031Z,9.80
2018-06-10T15:20:40.569Z,10.00
2018-06-10T15:23:09.041Z,9.67
2018-06-10T15:25:37.407Z,9.23
2018-06-10T15:28:05.778Z,9.03
2018-06-10T15:30:34.185Z,9.40
2018-06-10T15:33:02.661Z,10.47
2018-06-10T15:35:31.257Z,10.80
2018-06-10T15:37:59.589Z,10.70
2018-06-10T15:40:28.039Z,10.83
2018-06-10T15:42:56.543Z,13.17
2018-06-10T15:45:24.862Z,11.70
2018-06-10T15:47:53.299Z,11.80
2018-06-10T15:50:21.646Z,12.30
2018-06-10T15:52:50.027Z,13.13
2018-06-10T15:55:18.146Z,11.47
2018-06-10T15:57:46.468Z,11.90
2018-06-10T16:00:14.743Z,10.03
2018-06-10T16:02:43.115Z,10.33
2018-06-10T16:05:11.411Z,9.80
2018-06-10T16:07:39.754Z,9.83
2018-06-10T16:10:08.008Z,9.80
2018-06-10T16:12:36.504Z,10.10
2018-06-10T16:15:05.098Z,9.67
2018-06-10T16:17:33.569Z,9.47
2018-06-10T16:20:01.923Z,10.10
2018-06-10T16:22:30.507Z,9.70
2018-06-10T16:24:59.088Z,10.30
2018-06-10T16:27:27.431Z,12.70
2018-06-10T16:29:56.056Z,10.20
2018-06-10T16:32:24.614Z,10.70
2018-06-10T16:34:53.086Z,11.17
2018-06-10T16:37:21.566Z,10.47
2018-06-10T16:39:50.459Z,10.73
2018-06-10T16:42:19.771Z,10.50
2018-06-10T16:44:48.386Z,10.67
2018-06-10T16:47:16.763Z,9.97
2018-06-10T16:49:45.239Z,9.00
2018-06-10T16:52:13.721Z,10.43
2018-06-10T16:54:42.095Z,10.40
2018-06-10T16:57:11.274Z,11.37
2018-06-10T16:59:39.814Z,9.57
2018-06-10T17:02:09.396Z,12.00
2018-06-10T17:04:37.851Z,11.80
2018-06-10T17:07:06.182Z,10.23
2018-06-10T17:09:34.647Z,10.07
2018-06-10T17:12:03.077Z,9.47
2018-06-10T17:14:31.527Z,10.33
2018-06-10T17:16:59.986Z,9.30
2018-06-10T17:19:28.472Z,9.30
2018-06-10T17:21:57.102Z,9.00
2018-06-10T17:24:26.035Z,9.80
2018-06-10T17:26:54.418Z,10.57
2018-06-10T17:29:22.727Z,10.17
2018-06-10T17:31:51.108Z,11.30
2018-06-10T17:34:19.446Z,10.53
2018-06-10T17:36:48.106Z,10.23
2018-06-10T17:39:17.677Z,10.33
2018-06-10T17:41:46.319Z,10.00
2018-06-10T17:44:15.030Z,10.77
2018-06-10T17:46:43.482Z,11.47
2018-06-10T17:49:12.227Z,12.00
2018-06-10T17:51:40.861Z,12.70
2018-06-10T17:54:09.620Z,11.30
2018-06-10T17:56:38.553Z,12.10
2018-06-10T17:59:06.889Z,12.30
2018-06-10T18:01:36.906Z,11.43
2018-06-10T18:04:05.507Z,11.70
2018-06-10T18:06:34.298Z,12.70
2018-06-10T18:09:06.160Z,12.83
2018-06-10T18:11:35.120Z,12.20
2018-06-10T18:14:04.099Z,11.50
2018-06-10T18:16:32.643Z,12.10
2018-06-10T18:19:01.130Z,11.40
2018-06-10T18:21:29.522Z,12.37
2018-06-10T18:23:57.789Z,13.23
2018-06-10T18:26:26.786Z,14.33
2018-06-10T18:28:55.383Z,19.27
2018-06-10T18:31:23.739Z,20.53
2018-06-10T18:33:52.089Z,21.37
2018-06-10T18:36:20.433Z,22.33
2018-06-10T18:38:48.858Z,24.67
2018-06-10T18:41:17.124Z,26.50
2018-06-10T18:43:45.633Z,24.53
2018-06-10T18:46:14.309Z,23.93
2018-06-10T18:48:42.671Z,10.73
2018-06-10T18:51:11.307Z,10.17
2018-06-10T18:53:40.094Z,11.90
2018-06-10T18:56:12.465Z,10.40
2018-06-10T18:58:41.110Z,9.50
2018-06-10T19:01:09.874Z,11.30
2018-06-10T19:03:38.431Z,10.70
2018-06-10T19:06:07.957Z,11.77
2018-06-10T19:08:36.861Z,10.53
2018-06-10T19:11:06.063Z,13.47
2018-06-10T19:13:34.691Z,13.63
2018-06-10T19:16:03.171Z,14.00
2018-06-10T19:18:31.743Z,15.80
2018-06-10T19:21:00.242Z,17.90
2018-06-10T19:23:28.783Z,19.93
2018-06-10T19:25:57.224Z,20.03
2018-06-10T19:28:26.367Z,19.03
2018-06-10T19:30:55.208Z,21.77
2018-06-10T19:33:24.234Z,21.27
2018-06-10T19:35:52.761Z,20.57
2018-06-10T19:38:21.229Z,23.20
2018-06-10T19:40:50.072Z,22.00
2018-06-10T19:43:18.879Z,21.40
2018-06-10T19:45:47.542Z,21.40
2018-06-10T19:48:16.170Z,21.00
2018-06-10T19:50:44.852Z,19.40
2018-06-10T19:53:13.334Z,21.07
2018-06-10T19:55:41.794Z,20.10
2018-06-10T19:58:10.203Z,21.00
2018-06-10T20:00:38.788Z,17.87
2018-06-10T20:03:07.161Z,18.13
2018-06-10T20:05:35.584Z,17.13
2018-06-10T20:08:03.982Z,19.23
2018-06-10T20:10:32.421Z,19.87
2018-06-10T20:13:00.698Z,20.53
2018-06-10T20:15:28.977Z,21.80
2018-06-10T20:17:57.331Z,22.80
2018-06-10T20:20:25.511Z,21.23
2018-06-10T20:22:53.776Z,20.57
2018-06-10T20:25:21.958Z,21.20
2018-06-10T20:27:50.179Z,21.10
2018-06-10T20:30:18.597Z,20.10
2018-06-10T20:32:46.795Z,21.37
2018-06-10T20:35:14.987Z,18.97
2018-06-10T20:37:43.121Z,19.60
2018-06-10T20:40:11.325Z,21.00
2018-06-10T20:42:40.047Z,20.93
2018-06-10T20:45:08.182Z,20.67
2018-06-10T20:47:36.347Z,21.00
2018-06-10T20:50:04.675Z,22.77
2018-06-10T20:52:32.958Z,22.93
2018-06-10T20:55:01.197Z,21.77
2018-06-10T20:57:31.908Z,21.87
2018-06-10T21:00:00.182Z,22.03
2018-06-10T21:02:28.515Z,24.60
2018-06-10T21:04:56.742Z,21.70
2018-06-10T21:07:25.022Z,22.20
2018-06-10T21:09:53.199Z,20.33
2018-06-10T21:12:21.383Z,22.63
2018-06-10T21:14:49.574Z,22.60
2018-06-10T21:17:17.725Z,22.80
2018-06-10T21:19:45.939Z,21.50
2018-06-10T21:22:14.143Z,21.63
2018-06-10T21:24:42.292Z,21.90
2018-06-10T21:27:10.490Z,21.60
2018-06-10T21:29:38.774Z,21.17
2018-06-10T21:32:07.761Z,21.30
2018-06-10T21:34:35.981Z,19.50
2018-06-10T21:37:04.233Z,19.70
2018-06-10T21:39:32.422Z,20.30
2018-06-10T21:42:00.759Z,23.13
2018-06-10T21:44:28.966Z,23.00
2018-06-10T21:46:57.154Z,22.63
2018-06-10T21:49:25.279Z,20.70
2018-06-10T21:51:53.779Z,19.10
2018-06-10T21:54:22.471Z,18.07
2018-06-10T21:56:51.065Z,13.30
2018-06-10T21:59:19.161Z,12.50
2018-06-10T22:01:47.832Z,11.53
2018-06-10T22:04:15.982Z,10.37
2018-06-10T22:06:44.176Z,9.97
2018-06-10T22:09:12.390Z,11.67
2018-06-10T22:11:40.708Z,13.40
2018-06-10T22:14:08.937Z,11.73
2018-06-10T22:16:37.078Z,12.97
2018-06-10T22:19:05.430Z,12.63
2018-06-10T22:21:33.604Z,12.50
2018-06-10T22:24:01.777Z,13.30
2018-06-10T22:26:29.843Z,13.10
2018-06-10T22:28:58.120Z,13.73
2018-06-10T22:31:26.246Z,12.40
2018-06-10T22:33:54.420Z,13.83
2018-06-10T22:36:22.647Z,14.10
2018-06-10T22:38:51.082Z,14.60
2018-06-10T22:41:19.217Z,16.10
2018-06-10T22:43:47.355Z,15.60
2018-06-10T22:46:15.508Z,14.43
2018-06-10T22:48:43.722Z,14.67
2018-06-10T22:51:11.864Z,16.23
2018-06-10T22:54:21.957Z,14.67
2018-06-10T22:56:50.108Z,16.03
2018-06-10T22:59:18.342Z,15.43
2018-06-10T23:01:46.595Z,16.07
2018-06-10T23:04:14.762Z,15.03
2018-06-10T23:06:42.878Z,15.13
2018-06-10T23:09:11.154Z,16.03
2018-06-10T23:11:39.277Z,16.80
2018-06-10T23:14:07.385Z,18.13
2018-06-10T23:16:35.565Z,19.53
2018-06-10T23:19:03.896Z,17.60
2018-06-10T23:21:32.035Z,19.10
2018-06-10T23:24:00.213Z,19.53
2018-06-10T23:26:28.312Z,19.97
2018-06-10T23:28:56.840Z,20.40
2018-06-10T23:31:25.017Z,19.57
2018-06-10T23:33:53.116Z,22.13
2018-06-10T23:36:21.218Z,20.37
2018-06-10T23:38:49.473Z,21.17
2018-06-10T23:41:17.580Z,21.50
2018-06-10T23:43:45.876Z,21.77
2018-06-10T23:46:14.037Z,21.57
2018-06-10T23:48:42.217Z,22.50
2018-06-10T23:51:10.496Z,22.30
2018-06-10T23:53:38.589Z,20.33
2018-06-10T23:56:06.762Z,20.80
2018-06-10T23:58:34.943Z,21.07
